createdAt,value
2022-12-25T00:01:22.689Z,11.09
2022-12-25T00:03:51.491Z,11.11
2022-12-25T00:06:19.864Z,11.08
2022-12-25T00:08:53.107Z,11.07
2022-12-25T00:11:24.465Z,11.01
2022-12-25T00:13:53.277Z,10.97
2022-12-25T00:16:34.199Z,11.01
2022-12-25T00:19:02.786Z,10.98
2022-12-25T00:21:33.612Z,11.21
2022-12-25T00:24:02.845Z,11.02
2022-12-25T00:26:36.993Z,10.86
2022-12-25T00:29:13.788Z,10.98
2022-12-25T00:31:40.874Z,10.89
2022-12-25T00:34:19.861Z,10.79
2022-12-25T00:36:53.736Z,10.74
2022-12-25T00:39:24.545Z,10.71
2022-12-25T00:42:10.132Z,10.68
2022-12-25T00:44:37.312Z,10.66
2022-12-25T00:47:07.807Z,11.20
2022-12-25T00:49:38.635Z,11.23
2022-12-25T00:52:07.505Z,11.09
2022-12-25T00:54:36.388Z,11.02
2022-12-25T00:57:04.477Z,11.10
2022-12-25T00:59:36.163Z,11.13
2022-12-25T01:02:22.596Z,11.57
2022-12-25T01:04:57.628Z,12.03
2022-12-25T01:07:28.340Z,12.35
2022-12-25T01:10:13.773Z,12.78
2022-12-25T01:12:43.056Z,12.99
2022-12-25T01:15:11.320Z,12.85
2022-12-25T01:17:38.254Z,12.92
2022-12-25T01:20:08.615Z,12.53
2022-12-25T01:22:35.572Z,12.13
2022-12-25T01:25:02.465Z,11.82
2022-12-25T01:27:30.377Z,11.44
2022-12-25T01:32:40.541Z,11.57
2022-12-25T01:35:08.329Z,11.80
2022-12-25T01:37:35.330Z,12.11
2022-12-25T01:40:02.321Z,12.34
2022-12-25T01:42:29.542Z,12.37
2022-12-25T01:45:38.173Z,12.70
2022-12-25T01:48:09.122Z,13.23
2022-12-25T01:51:00.888Z,13.06
2022-12-25T01:53:30.645Z,12.59
2022-12-25T01:56:04.819Z,12.17
2022-12-25T01:58:35.109Z,11.69
2022-12-25T02:01:03.083Z,11.49
2022-12-25T02:03:30.071Z,11.39
2022-12-25T02:06:01.067Z,11.88
2022-12-25T02:08:29.661Z,11.74
2022-12-25T02:10:56.571Z,11.74
2022-12-25T02:13:23.385Z,12.06
2022-12-25T02:16:17.356Z,12.04
2022-12-25T02:18:51.082Z,12.21
2022-12-25T02:21:39.155Z,11.67
2022-12-25T02:24:24.222Z,11.47
2022-12-25T02:27:00.844Z,11.06
2022-12-25T02:29:33.898Z,10.91
2022-12-25T02:32:38.379Z,10.81
2022-12-25T02:35:24.372Z,11.12
2022-12-25T02:38:16.305Z,11.34
2022-12-25T02:40:50.453Z,11.51
2022-12-25T02:43:57.805Z,11.46
2022-12-25T02:46:45.063Z,11.50
2022-12-25T02:49:37.911Z,11.22
2022-12-25T02:52:27.703Z,11.09
2022-12-25T02:55:28.495Z,11.10
2022-12-25T02:58:20.504Z,11.19
2022-12-25T03:01:11.121Z,11.20
2022-12-25T03:04:01.971Z,11.08
2022-12-25T03:06:44.294Z,10.74
2022-12-25T03:09:36.468Z,10.77
2022-12-25T03:12:13.797Z,11.12
2022-12-25T03:14:59.764Z,11.22
2022-12-25T03:17:27.108Z,10.85
2022-12-25T03:20:13.053Z,10.68
2022-12-25T03:23:01.863Z,10.64
2022-12-25T03:25:48.074Z,10.46
2022-12-25T03:28:15.453Z,10.35
2022-12-25T03:31:11.793Z,10.20
2022-12-25T03:34:12.706Z,10.19
2022-12-25T03:37:18.208Z,10.14
2022-12-25T03:40:52.534Z,10.23
2022-12-25T03:43:49.805Z,10.18
2022-12-25T03:46:38.190Z,10.19
2022-12-25T03:49:47.358Z,10.39
2022-12-25T03:52:37.200Z,10.56
2022-12-25T03:55:27.891Z,11.19
2022-12-25T03:58:13.678Z,11.37
2022-12-25T04:01:02.613Z,11.31
2022-12-25T04:03:49.144Z,10.97
2022-12-25T04:06:35.732Z,10.67
2022-12-25T04:09:22.656Z,10.58
2022-12-25T04:12:08.445Z,10.49
2022-12-25T04:14:58.299Z,10.42
2022-12-25T04:17:44.108Z,10.42
2022-12-25T04:20:29.957Z,10.40
2022-12-25T04:23:15.705Z,10.35
2022-12-25T04:26:03.661Z,10.41
2022-12-25T04:28:54.199Z,10.44
2022-12-25T04:31:39.832Z,10.40
2022-12-25T04:34:25.730Z,10.38
2022-12-25T04:36:52.669Z,10.43
2022-12-25T04:39:19.826Z,10.63
2022-12-25T04:41:47.130Z,10.85
2022-12-25T04:44:14.218Z,10.88
2022-12-25T04:46:41.391Z,10.75
2022-12-25T04:49:08.495Z,10.68
2022-12-25T04:51:38.856Z,10.72
2022-12-25T04:54:07.534Z,10.62
2022-12-25T04:56:35.657Z,10.61
2022-12-25T04:59:06.741Z,10.55
2022-12-25T05:01:33.993Z,10.54
2022-12-25T05:04:00.982Z,10.53
2022-12-25T05:06:29.618Z,10.50
2022-12-25T05:09:00.314Z,10.56
2022-12-25T05:11:27.896Z,10.56
2022-12-25T05:13:54.889Z,10.72
2022-12-25T05:16:22.170Z,10.58
2022-12-25T05:18:51.428Z,10.51
2022-12-25T05:21:19.000Z,10.54
2022-12-25T05:23:48.893Z,10.54
2022-12-25T05:26:18.075Z,10.57
2022-12-25T05:28:45.113Z,10.61
2022-12-25T05:31:12.076Z,10.60
2022-12-25T05:33:39.105Z,10.81
2022-12-25T05:36:07.977Z,10.79
2022-12-25T05:38:35.145Z,10.93
2022-12-25T05:41:02.182Z,10.72
2022-12-25T05:43:29.809Z,10.78
2022-12-25T05:45:56.668Z,10.83
2022-12-25T05:48:23.679Z,11.17
2022-12-25T05:50:51.886Z,11.12
2022-12-25T05:53:18.786Z,11.11
2022-12-25T05:55:47.127Z,10.99
2022-12-25T05:58:13.961Z,10.78
2022-12-25T06:00:43.783Z,10.75
2022-12-25T06:03:10.782Z,10.74
2022-12-25T06:05:40.744Z,10.93
2022-12-25T06:08:07.632Z,10.90
2022-12-25T06:10:34.399Z,10.78
2022-12-25T06:13:01.275Z,10.97
2022-12-25T06:15:28.116Z,10.86
2022-12-25T06:17:58.009Z,10.81
2022-12-25T06:20:24.913Z,10.71
2022-12-25T06:22:54.609Z,10.67
2022-12-25T06:25:21.496Z,10.69
2022-12-25T06:27:48.274Z,10.78
2022-12-25T06:30:15.303Z,10.65
2022-12-25T06:32:42.215Z,10.63
2022-12-25T06:35:09.204Z,10.59
2022-12-25T06:37:37.346Z,10.62
2022-12-25T06:40:04.637Z,10.55
2022-12-25T06:42:31.777Z,10.68
2022-12-25T06:44:58.553Z,10.68
2022-12-25T06:47:25.346Z,10.63
2022-12-25T06:49:52.263Z,10.57
2022-12-25T06:52:19.198Z,10.61
2022-12-25T06:54:47.489Z,10.76
2022-12-25T06:57:14.484Z,10.74
2022-12-25T06:59:41.347Z,10.73
2022-12-25T07:02:17.525Z,10.74
2022-12-25T07:04:45.033Z,10.67
2022-12-25T07:07:12.097Z,10.70
2022-12-25T07:09:39.459Z,10.67
2022-12-25T07:12:08.076Z,10.66
2022-12-25T07:14:35.187Z,10.61
2022-12-25T07:17:02.260Z,10.55
2022-12-25T07:19:29.354Z,10.54
2022-12-25T07:21:56.872Z,10.61
2022-12-25T07:24:26.736Z,10.67
2022-12-25T07:26:54.111Z,10.66
2022-12-25T07:29:24.310Z,10.63
2022-12-25T07:31:53.444Z,10.68
2022-12-25T07:34:30.650Z,10.74
2022-12-25T07:37:00.693Z,10.68
2022-12-25T07:39:30.898Z,10.67
2022-12-25T07:42:02.166Z,10.72
2022-12-25T07:44:31.153Z,10.75
2022-12-25T07:46:59.616Z,10.75
2022-12-25T07:49:26.509Z,10.76
2022-12-25T07:51:53.494Z,10.80
2022-12-25T07:54:21.047Z,11.19
2022-12-25T07:56:52.179Z,11.75
2022-12-25T07:59:20.115Z,12.10
2022-12-25T08:01:47.179Z,11.98
2022-12-25T08:04:14.167Z,12.02
2022-12-25T08:06:41.124Z,11.73
2022-12-25T08:09:15.174Z,11.71
2022-12-25T08:11:49.343Z,11.95
2022-12-25T08:14:16.349Z,12.36
2022-12-25T08:16:47.250Z,12.49
2022-12-25T08:19:15.497Z,12.57
2022-12-25T08:21:42.511Z,12.40
2022-12-25T08:24:11.136Z,12.66
2022-12-25T08:26:39.586Z,12.87
2022-12-25T08:29:06.432Z,12.98
2022-12-25T08:31:38.294Z,12.45
2022-12-25T08:34:09.694Z,12.38
2022-12-25T08:36:37.417Z,12.14
2022-12-25T08:39:08.199Z,11.96
2022-12-25T08:41:36.836Z,11.95
2022-12-25T08:44:05.014Z,11.91
2022-12-25T08:46:32.386Z,12.00
2022-12-25T08:49:00.151Z,11.96
2022-12-25T08:51:33.524Z,11.80
2022-12-25T08:54:01.058Z,12.01
2022-12-25T08:56:30.043Z,11.89
2022-12-25T08:58:59.340Z,11.92
2022-12-25T09:01:27.974Z,12.29
2022-12-25T09:03:55.119Z,12.50
2022-12-25T09:06:22.526Z,12.45
2022-12-25T09:08:50.060Z,12.71
2022-12-25T09:11:22.500Z,12.84
2022-12-25T09:13:49.499Z,13.01
2022-12-25T09:16:21.078Z,12.83
2022-12-25T09:18:48.672Z,12.88
2022-12-25T09:21:16.804Z,13.03
2022-12-25T09:23:44.303Z,13.06
2022-12-25T09:26:14.264Z,13.11
2022-12-25T09:28:45.339Z,12.88
2022-12-25T09:31:15.588Z,12.40
2022-12-25T09:33:44.530Z,12.22
2022-12-25T09:36:12.964Z,12.47
2022-12-25T09:38:42.933Z,12.63
2022-12-25T09:41:50.091Z,12.85
2022-12-25T09:44:26.145Z,12.91
2022-12-25T09:47:24.425Z,12.62
2022-12-25T09:50:11.630Z,12.39
2022-12-25T09:53:01.333Z,12.61
2022-12-25T09:55:31.926Z,12.72
2022-12-25T09:58:02.322Z,12.85
2022-12-25T10:00:38.923Z,12.75
2022-12-25T10:03:31.909Z,12.50
2022-12-25T10:06:05.773Z,12.36
2022-12-25T10:09:11.137Z,12.44
2022-12-25T10:12:00.439Z,12.20
2022-12-25T10:14:32.230Z,11.97
2022-12-25T10:17:12.699Z,11.83
2022-12-25T10:19:52.079Z,12.00
2022-12-25T10:22:47.706Z,12.13
2022-12-25T10:25:24.970Z,11.94
2022-12-25T10:28:20.098Z,11.85
2022-12-25T10:30:51.012Z,11.73
2022-12-25T10:33:18.000Z,11.70
2022-12-25T10:35:45.641Z,11.88
2022-12-25T10:38:16.188Z,11.82
2022-12-25T10:41:14.371Z,11.68
2022-12-25T10:43:49.705Z,11.74
2022-12-25T10:46:17.798Z,11.64
2022-12-25T10:49:03.763Z,11.77
2022-12-25T10:51:39.333Z,12.10
2022-12-25T10:54:28.268Z,12.11
2022-12-25T10:57:05.297Z,11.92
2022-12-25T10:59:42.329Z,11.92
2022-12-25T11:02:35.272Z,12.09
2022-12-25T11:05:08.586Z,12.29
2022-12-25T11:07:46.973Z,12.42
2022-12-25T11:10:25.305Z,12.11
2022-12-25T11:12:53.781Z,12.14
2022-12-25T11:15:32.887Z,12.02
2022-12-25T11:18:02.572Z,11.96
2022-12-25T11:20:30.412Z,11.96
2022-12-25T11:23:00.264Z,11.92
2022-12-25T11:25:28.456Z,12.08
2022-12-25T11:28:14.323Z,11.77
2022-12-25T11:30:41.630Z,11.83
2022-12-25T11:33:14.300Z,11.87
2022-12-25T11:35:51.178Z,11.66
2022-12-25T11:38:18.655Z,11.68
2022-12-25T11:40:57.799Z,11.61
2022-12-25T11:43:34.359Z,11.63
2022-12-25T11:46:11.178Z,11.80
2022-12-25T11:48:44.998Z,11.96
2022-12-25T11:51:15.388Z,12.00
2022-12-25T11:53:54.474Z,11.96
2022-12-25T11:56:28.399Z,11.92
2022-12-25T11:59:00.897Z,11.78
2022-12-25T12:01:31.007Z,12.09
2022-12-25T12:04:01.196Z,12.29
2022-12-25T12:07:03.578Z,12.09
2022-12-25T12:09:42.596Z,12.15
2022-12-25T12:12:23.838Z,12.53
2022-12-25T12:15:25.033Z,12.22
2022-12-25T12:17:53.529Z,12.11
2022-12-25T12:20:34.445Z,12.06
2022-12-25T12:23:15.771Z,12.40
2022-12-25T12:25:45.224Z,12.65
2022-12-25T12:28:21.570Z,12.69
2022-12-25T12:31:05.353Z,12.65
2022-12-25T12:33:38.173Z,12.37
2022-12-25T12:36:06.404Z,12.34
2022-12-25T12:38:35.480Z,12.34
2022-12-25T12:41:05.967Z,12.31
2022-12-25T12:43:41.319Z,12.42
2022-12-25T12:46:27.689Z,12.45
2022-12-25T12:49:20.315Z,12.48
2022-12-25T12:51:47.492Z,12.52
2022-12-25T12:54:21.102Z,12.33
2022-12-25T12:57:23.615Z,12.38
2022-12-25T12:59:50.496Z,12.52
2022-12-25T13:02:33.089Z,12.41
2022-12-25T13:05:04.539Z,12.54
2022-12-25T13:07:52.051Z,12.60
2022-12-25T13:10:30.345Z,12.58
2022-12-25T13:13:01.946Z,12.55
2022-12-25T13:15:33.164Z,12.49
2022-12-25T13:18:07.570Z,12.41
2022-12-25T13:20:54.326Z,12.83
2022-12-25T13:23:30.640Z,13.19
2022-12-25T13:26:01.472Z,13.45
2022-12-25T13:28:33.875Z,13.09
2022-12-25T13:31:18.601Z,12.88
2022-12-25T13:34:21.055Z,12.90
2022-12-25T13:36:50.628Z,12.99
2022-12-25T13:39:25.695Z,12.99
2022-12-25T13:42:15.476Z,13.06
2022-12-25T13:44:56.366Z,13.45
2022-12-25T13:47:36.028Z,13.25
2022-12-25T13:50:26.281Z,13.37
2022-12-25T13:52:56.529Z,13.25
2022-12-25T13:55:30.782Z,13.19
2022-12-25T13:58:05.029Z,12.99
2022-12-25T14:00:39.722Z,13.03
2022-12-25T14:03:15.307Z,13.20
2022-12-25T14:05:43.710Z,13.26
2022-12-25T14:08:16.342Z,13.16
2022-12-25T14:10:45.305Z,12.93
2022-12-25T14:13:14.974Z,13.05
2022-12-25T14:15:43.315Z,12.90
2022-12-25T14:18:17.479Z,12.80
2022-12-25T14:21:05.299Z,12.93
2022-12-25T14:23:46.385Z,13.08
2022-12-25T14:26:18.003Z,13.16
2022-12-25T14:28:58.156Z,13.21
2022-12-25T14:31:25.536Z,13.12
2022-12-25T14:33:54.210Z,12.93
2022-12-25T14:36:21.664Z,13.07
2022-12-25T14:39:03.930Z,13.17
2022-12-25T14:41:42.096Z,13.20
2022-12-25T14:44:37.205Z,13.04
2022-12-25T14:47:06.821Z,13.05
2022-12-25T14:49:33.865Z,13.11
2022-12-25T14:52:10.273Z,13.06
2022-12-25T14:54:37.705Z,12.88
2022-12-25T14:57:07.122Z,12.93
2022-12-25T14:59:34.201Z,13.05
2022-12-25T15:02:04.435Z,13.20
2022-12-25T15:04:32.682Z,13.25
2022-12-25T15:07:07.493Z,13.31
2022-12-25T15:09:36.264Z,13.26
2022-12-25T15:12:03.473Z,13.38
2022-12-25T15:14:31.881Z,13.04
2022-12-25T15:17:01.596Z,13.26
2022-12-25T15:19:37.740Z,13.28
2022-12-25T15:22:05.691Z,13.03
2022-12-25T15:24:35.614Z,13.10
2022-12-25T15:27:02.595Z,13.17
2022-12-25T15:30:07.970Z,13.03
2022-12-25T15:32:19.587Z,12.88
2022-12-25T15:34:49.940Z,12.92
2022-12-25T15:37:18.588Z,12.85
2022-12-25T15:39:46.203Z,12.83
2022-12-25T15:42:21.530Z,12.81
2022-12-25T15:44:48.530Z,12.86
2022-12-25T15:47:17.187Z,12.87
2022-12-25T15:49:44.126Z,13.04
2022-12-25T15:52:15.107Z,12.99
2022-12-25T15:54:42.064Z,12.99
2022-12-25T15:57:21.411Z,12.77
2022-12-25T15:59:49.434Z,12.95
2022-12-25T16:02:20.771Z,12.93
2022-12-25T16:04:51.319Z,12.83
2022-12-25T16:07:20.767Z,12.75
2022-12-25T16:09:48.360Z,12.74
2022-12-25T16:12:15.809Z,12.88
2022-12-25T16:14:42.978Z,12.85
2022-12-25T16:17:15.807Z,12.76
2022-12-25T16:19:45.042Z,12.50
2022-12-25T16:22:25.834Z,12.33
2022-12-25T16:24:55.823Z,12.43
2022-12-25T16:27:23.242Z,12.40
2022-12-25T16:29:52.341Z,12.55
2022-12-25T16:32:20.473Z,12.82
2022-12-25T16:34:50.005Z,12.95
2022-12-25T16:37:23.302Z,13.08
2022-12-25T16:39:53.069Z,12.97
2022-12-25T16:42:20.099Z,12.72
2022-12-25T16:44:52.448Z,12.63
2022-12-25T16:47:19.414Z,12.52
2022-12-25T16:49:48.109Z,12.46
2022-12-25T16:52:15.322Z,12.65
2022-12-25T16:54:44.074Z,12.63
2022-12-25T16:57:11.058Z,12.64
2022-12-25T16:59:38.321Z,12.55
2022-12-25T17:02:05.275Z,12.48
2022-12-25T17:04:34.048Z,12.79
2022-12-25T17:07:01.408Z,12.68
2022-12-25T17:09:28.662Z,12.73
2022-12-25T17:11:58.020Z,12.56
2022-12-25T17:14:25.940Z,12.49
2022-12-25T17:16:53.426Z,12.50
2022-12-25T17:19:24.097Z,12.46
2022-12-25T17:21:54.046Z,12.65
2022-12-25T17:24:21.853Z,12.37
2022-12-25T17:26:50.930Z,12.60
2022-12-25T17:29:21.899Z,12.40
2022-12-25T17:31:49.980Z,12.31
2022-12-25T17:34:20.453Z,12.56
2022-12-25T17:36:47.984Z,12.59
2022-12-25T17:39:15.052Z,12.59
2022-12-25T17:41:42.120Z,12.41
2022-12-25T17:44:12.418Z,12.32
2022-12-25T17:46:39.719Z,12.22
2022-12-25T17:49:09.416Z,12.34
2022-12-25T17:51:36.430Z,12.37
2022-12-25T17:54:07.218Z,12.24
2022-12-25T17:56:35.617Z,12.43
2022-12-25T17:59:06.985Z,12.77
2022-12-25T18:01:35.477Z,12.51
2022-12-25T18:04:06.437Z,12.74
2022-12-25T18:06:35.707Z,13.02
2022-12-25T18:09:10.695Z,12.94
2022-12-25T18:11:41.542Z,13.02
2022-12-25T18:14:11.772Z,13.01
2022-12-25T18:16:40.912Z,12.68
2022-12-25T18:19:08.592Z,12.39
2022-12-25T18:21:35.716Z,12.38
2022-12-25T18:24:05.079Z,12.29
2022-12-25T18:26:34.525Z,12.42
2022-12-25T18:29:04.298Z,12.30
2022-12-25T18:31:32.722Z,12.24
2022-12-25T18:34:00.358Z,12.44
2022-12-25T18:36:29.586Z,12.41
2022-12-25T18:38:58.123Z,12.59
2022-12-25T18:41:28.963Z,12.53
2022-12-25T18:43:56.390Z,12.41
2022-12-25T18:46:26.481Z,12.28
2022-12-25T18:48:56.973Z,12.28
2022-12-25T18:51:24.447Z,12.14
2022-12-25T18:53:51.746Z,12.13
2022-12-25T18:56:24.258Z,12.14
2022-12-25T18:58:51.050Z,12.41
2022-12-25T19:01:23.352Z,12.50
2022-12-25T19:03:51.445Z,12.25
2022-12-25T19:06:27.879Z,12.24
2022-12-25T19:08:56.144Z,12.27
2022-12-25T19:11:26.519Z,12.20
2022-12-25T19:13:53.445Z,12.27
2022-12-25T19:16:20.369Z,12.54
2022-12-25T19:18:47.230Z,12.36
2022-12-25T19:21:16.202Z,12.37
2022-12-25T19:23:44.683Z,12.19
2022-12-25T19:26:13.217Z,12.07
2022-12-25T19:28:40.829Z,12.13
2022-12-25T19:31:10.129Z,12.18
2022-12-25T19:33:39.401Z,12.45
2022-12-25T19:36:10.904Z,12.50
2022-12-25T19:38:39.228Z,12.49
2022-12-25T19:41:08.234Z,12.31
2022-12-25T19:43:42.903Z,12.35
2022-12-25T19:46:26.306Z,12.32
2022-12-25T19:48:53.933Z,12.26
2022-12-25T19:51:30.708Z,12.26
2022-12-25T19:53:59.908Z,12.30
2022-12-25T19:56:29.691Z,12.34
2022-12-25T19:58:58.732Z,12.36
2022-12-25T20:01:29.111Z,12.38
2022-12-25T20:03:59.196Z,12.36
2022-12-25T20:06:34.426Z,12.53
2022-12-25T20:09:09.277Z,12.63
2022-12-25T20:11:38.308Z,12.68
2022-12-25T20:14:07.671Z,12.81
2022-12-25T20:16:38.488Z,12.66
2022-12-25T20:19:07.122Z,12.78
2022-12-25T20:21:34.498Z,12.77
2022-12-25T20:24:02.729Z,12.75
2022-12-25T20:26:34.791Z,12.57
2022-12-25T20:29:04.717Z,12.49
2022-12-25T20:31:35.537Z,12.34
2022-12-25T20:34:27.107Z,12.43
2022-12-25T20:36:54.354Z,12.35
2022-12-25T20:39:24.655Z,12.19
2022-12-25T20:41:51.872Z,12.26
2022-12-25T20:44:20.042Z,12.36
2022-12-25T20:46:49.180Z,12.46
2022-12-25T20:49:16.120Z,12.56
2022-12-25T20:51:43.340Z,12.63
2022-12-25T20:54:11.336Z,12.50
2022-12-25T20:56:38.541Z,12.39
2022-12-25T20:59:08.767Z,12.31
2022-12-25T21:01:35.822Z,12.25
2022-12-25T21:04:03.351Z,12.18
2022-12-25T21:06:33.130Z,12.34
2022-12-25T21:09:00.485Z,12.32
2022-12-25T21:11:28.963Z,12.13
2022-12-25T21:13:56.118Z,11.98
2022-12-25T21:16:26.026Z,11.94
2022-12-25T21:18:54.893Z,11.93
2022-12-25T21:21:23.109Z,11.99
2022-12-25T21:23:57.397Z,12.02
2022-12-25T21:26:29.627Z,12.14
2022-12-25T21:29:00.716Z,12.01
2022-12-25T21:31:37.514Z,12.00
2022-12-25T21:34:05.815Z,12.05
2022-12-25T21:36:38.857Z,12.11
2022-12-25T21:39:09.281Z,12.14
2022-12-25T21:41:40.243Z,12.07
2022-12-25T21:44:09.271Z,12.01
2022-12-25T21:46:36.180Z,11.79
2022-12-25T21:49:04.290Z,11.87
2022-12-25T21:51:52.862Z,11.88
2022-12-25T21:54:24.817Z,12.00
2022-12-25T21:56:54.084Z,11.96
2022-12-25T21:59:22.230Z,11.77
2022-12-25T22:01:50.914Z,11.86
2022-12-25T22:04:22.065Z,11.85
2022-12-25T22:07:07.578Z,11.78
2022-12-25T22:09:34.861Z,11.77
2022-12-25T22:12:22.340Z,11.82
2022-12-25T22:14:55.464Z,11.78
2022-12-25T22:17:49.835Z,11.69
2022-12-25T22:20:40.794Z,11.68
2022-12-25T22:23:07.879Z,11.76
2022-12-25T22:25:37.857Z,11.71
2022-12-25T22:28:04.905Z,11.66
2022-12-25T22:30:32.098Z,11.60
2022-12-25T22:33:01.955Z,11.54
2022-12-25T22:35:29.023Z,11.60
2022-12-25T22:37:58.255Z,11.57
2022-12-25T22:40:25.215Z,11.61
2022-12-25T22:42:56.305Z,11.81
2022-12-25T22:45:33.221Z,11.58
2022-12-25T22:48:01.760Z,11.60
2022-12-25T22:50:29.432Z,11.54
2022-12-25T22:52:59.476Z,11.49
2022-12-25T22:55:30.402Z,11.56
2022-12-25T22:58:01.544Z,11.62
2022-12-25T23:00:28.689Z,11.54
2022-12-25T23:02:57.718Z,11.57
2022-12-25T23:05:25.359Z,11.49
2022-12-25T23:07:52.399Z,11.45
2022-12-25T23:10:19.356Z,11.44
2022-12-25T23:13:04.807Z,11.62
2022-12-25T23:15:32.795Z,11.67
2022-12-25T23:18:20.000Z,11.58
2022-12-25T23:21:07.026Z,11.64
2022-12-25T23:24:10.856Z,11.57
2022-12-25T23:26:38.133Z,11.53
2022-12-25T23:29:24.331Z,11.56
2022-12-25T23:31:53.860Z,11.57
2022-12-25T23:34:44.352Z,11.41
2022-12-25T23:37:14.634Z,11.32
2022-12-25T23:39:43.803Z,11.55
2022-12-25T23:42:20.536Z,11.40
2022-12-25T23:44:58.110Z,11.45
2022-12-25T23:47:28.038Z,11.59
2022-12-25T23:49:58.034Z,11.46
2022-12-25T23:52:49.451Z,11.43
2022-12-25T23:55:17.599Z,11.49
2022-12-25T23:58:00.494Z,11.52
